TimeCST,TemperatureF,Dew PointF,Humidity,Sea Level PressureIn,VisibilityMPH,Wind Direction,Wind SpeedMPH,Gust SpeedMPH,PrecipitationIn,Events,Conditions,WindDirDegrees,DateUTC
12:53 AM,39.9,36.0,86,29.58,10.0,Calm,Calm,-,N/A,,Clear,0,2011-11-14 06:53:00
1:53 AM,37.9,35.1,89,29.57,10.0,Calm,Calm,-,N/A,,Clear,0,2011-11-14 07:53:00
2:53 AM,42.1,35.1,76,29.55,10.0,Calm,Calm,-,N/A,,Clear,0,2011-11-14 08:53:00
3:53 AM,45.0,35.1,68,29.55,10.0,Calm,Calm,-,N/A,,Clear,0,2011-11-14 09:53:00
4:53 AM,44.1,37.0,76,29.56,10.0,NNE,6.9,-,N/A,,Clear,20,2011-11-14 10:53:00
5:53 AM,41.0,35.6,81,29.58,10.0,North,3.5,-,N/A,,Clear,350,2011-11-14 11:53:00
6:53 AM,41.0,36.0,82,29.58,10.0,ENE,3.5,-,N/A,,Clear,70,2011-11-14 12:53:00
7:53 AM,42.1,36.0,79,29.64,10.0,NW,11.5,-,N/A,,Clear,320,2011-11-14 13:53:00
8:53 AM,46.0,37.9,73,29.65,10.0,SE,4.6,-,N/A,,Clear,140,2011-11-14 14:53:00
9:53 AM,50.0,39.9,68,29.67,10.0,South,4.6,-,N/A,,Clear,190,2011-11-14 15:53:00
10:53 AM,59.0,36.0,42,29.68,10.0,West,17.3,23.0,N/A,,Clear,260,2011-11-14 16:53:00
11:53 AM,61.0,33.1,35,29.68,10.0,West,17.3,20.7,N/A,,Clear,270,2011-11-14 17:53:00
12:53 PM,62.1,32.0,32,29.67,10.0,West,18.4,25.3,N/A,,Clear,270,2011-11-14 18:53:00
1:53 PM,60.1,32.0,35,29.68,10.0,West,16.1,23.0,N/A,,Clear,260,2011-11-14 19:53:00
2:53 PM,59.0,33.1,38,29.68,10.0,West,12.7,-,N/A,,Clear,280,2011-11-14 20:53:00
3:53 PM,57.0,34.0,42,29.70,10.0,West,9.2,-,N/A,,Clear,270,2011-11-14 21:53:00
4:53 PM,54.0,35.1,49,29.71,10.0,WSW,5.8,-,N/A,,Clear,250,2011-11-14 22:53:00
5:53 PM,48.9,35.1,59,29.74,10.0,Calm,Calm,-,N/A,,Clear,0,2011-11-14 23:53:00
6:53 PM,46.4,35.6,66,29.74,10.0,SSW,3.5,-,N/A,,Clear,210,2011-11-15 00:53:00
7:53 PM,46.0,36.0,68,29.76,10.0,East,3.5,-,N/A,,Clear,90,2011-11-15 01:53:00
8:53 PM,39.0,35.1,86,29.75,10.0,SE,3.5,-,N/A,,Clear,130,2011-11-15 02:53:00
9:53 PM,39.0,37.0,93,29.75,10.0,Calm,Calm,-,N/A,,Clear,0,2011-11-15 03:53:00
10:53 PM,39.9,36.0,86,29.74,10.0,Calm,Calm,-,N/A,,Clear,0,2011-11-15 04:53:00
11:53 PM,37.0,36.0,96,29.73,10.0,SSW,3.5,-,N/A,,Clear,200,2011-11-15 05:53:00